Latest Coastal Weather Observations for Frankston

IDV60701

Issued at 12:11 am EDT Saturday 28 February 2015 (issued every 10 minutes, with the page automatically refreshed every 10 minutes)

About coastal observations | Map of coastal stations | Coastal observations for VIC | Marine services | Other Formats
Station Details ID: 086371 Name: FRANKSTON AWS Lat: -38.15 Lon: 145.12 Height: 6.0 m
Data from the previous 72 hours. | See also: Recent months at Frankston
Date/Time
EDT
Temp

°C
Wind Pressure Rain
since 9am
mm
Weather Cloud Vis
km
Sea
Height
m
Swell
Dir
 
Speed
knots
Gust
knots
hPa Trend Height
m
Period
s
Dir
28/12:00am 17.3 SSE 5 9 - - - - - - - - - -
 
Date/Time
EDT
Temp

°C
Wind Pressure Rain
since 9am
mm
Weather Cloud Vis
km
Sea
Height
m
Swell
Dir
 
Speed
knots
Gust
knots
hPa Trend Height
m
Period
s
Dir
27/11:30pm 17.4 SSE 5 8 - - - - - - - - - -
27/11:00pm 17.5 SE 3 7 - - - - - - - - - -
27/10:30pm 17.6 ESE 4 7 - - - - - - - - - -
27/10:00pm 17.5 SSE 4 8 - - - - - - - - - -
27/09:30pm 17.6 SSE 5 10 - - - - - - - - - -
27/09:00pm 17.7 SSE 6 11 - - - - - - - - - -
27/08:30pm 17.8 SSE 5 11 - - - - - - - - - -
27/08:00pm 18.0 SSE 6 12 - - - - - - - - - -
27/07:30pm 18.3 SSE 8 15 - - - - - - - - - -
27/07:00pm 18.8 SE 8 13 - - - - - - - - - -
27/06:30pm 19.2 SE 7 12 - - - - - - - - - -
27/06:00pm 19.9 SSE 6 13 - - - - - - - - - -
27/05:30pm 19.9 SSE 7 12 - - - - - - - - - -
27/05:00pm 20.8 S 5 9 - - - - - - - - - -
27/04:30pm 21.3 S 5 8 - - - - - - - - - -
27/04:00pm 20.9 WSW 8 9 - - - - - - - - - -
27/03:30pm 20.3 WSW 8 9 - - - - - - - - - -
27/03:00pm 19.9 W 8 9 - - - - - - - - - -
27/02:30pm 19.6 WSW 7 9 - - - - - - - - - -
27/02:00pm 19.4 W 8 10 - - - - - - - - - -
27/01:30pm 19.3 W 6 7 - - - - - - - - - -
27/01:00pm 19.3 W 5 5 - - - - - - - - - -
27/12:30pm 19.1 W 6 7 - - - - - - - - - -
27/12:00pm 18.9 WNW 4 5 - - - - - - - - - -
27/11:30am 18.7 WNW 4 5 - - - - - - - - - -
27/11:00am 18.7 WNW 4 5 - - - - - - - - - -
27/10:30am 18.3 NW 5 6 - - - - - - - - - -
27/10:00am 18.3 NNW 5 7 - - - - - - - - - -
27/09:30am 18.6 NNE 2 5 - - - - - - - - - -
27/09:00am 18.0 E 3 4 - - - - - - - - - -
27/08:30am 17.7 E 3 5 - - - - - - - - - -
27/08:00am 16.1 ESE 2 3 - - - - - - - - - -
27/07:30am 14.9 ESE 2 3 - - - - - - - - - -
27/07:00am 14.9 SE 3 5 - - - - - - - - - -
27/06:30am 15.0 SE 4 5 - - - - - - - - - -
27/06:00am 15.0 ESE 4 5 - - - - - - - - - -
27/05:30am 15.2 ESE 3 4 - - - - - - - - - -
27/05:00am 15.6 SE 3 4 - - - - - - - - - -
27/04:30am 15.8 SE 2 3 - - - - - - - - - -
27/04:00am 16.0 ESE 1 3 - - - - - - - - - -
27/03:30am 16.9 CALM 0 0 - - - - - - - - - -
27/03:00am 16.1 CALM 0 0 - - - - - - - - - -
27/02:30am 16.9 CALM 0 0 - - - - - - - - - -
27/02:00am 17.3 CALM 0 0 - - - - - - - - - -
27/01:30am 17.6 CALM 0 1 - - - - - - - - - -
27/01:00am 17.6 CALM 0 0 - - - - - - - - - -
27/12:30am 17.7 CALM 0 1 - - - - - - - - - -
27/12:00am 17.3 SSW 2 3 - - - - - - - - - -
 
Date/Time
EDT
Temp

°C
Wind Pressure Rain
since 9am
mm
Weather Cloud Vis
km
Sea
Height
m
Swell
Dir
 
Speed
knots
Gust
knots
hPa Trend Height
m
Period
s
Dir
26/11:30pm 17.5 S 2 3 - - - - - - - - - -
26/11:00pm 17.7 SSE 2 3 - - - - - - - - - -
26/10:30pm 17.8 S 2 3 - - - - - - - - - -
26/10:00pm 17.9 S 2 3 - - - - - - - - - -
26/09:30pm 18.0 SW 4 6 - - - - - - - - - -
26/09:00pm 18.0 S 2 5 - - - - - - - - - -
26/08:30pm 18.5 S 4 7 - - - - - - - - - -
26/08:00pm 19.3 SSE 4 7 - - - - - - - - - -
26/07:30pm 20.0 SSE 5 8 - - - - - - - - - -
26/07:00pm 20.9 S 4 8 - - - - - - - - - -
26/06:30pm 21.7 SSE 5 8 - - - - - - - - - -
26/06:00pm 21.9 S 3 8 - - - - - - - - - -
26/05:30pm 21.9 SW 6 9 - - - - - - - - - -
26/05:00pm 20.5 WSW 11 13 - - - - - - - - - -
26/04:30pm 20.6 WSW 12 14 - - - - - - - - - -
26/04:00pm 20.4 WSW 13 14 - - - - - - - - - -
26/03:30pm 20.4 WSW 12 13 - - - - - - - - - -
26/03:00pm 20.1 WSW 12 14 - - - - - - - - - -
26/02:30pm 20.0 WSW 12 14 - - - - - - - - - -
26/02:00pm 19.6 WSW 13 15 - - - - - - - - - -
26/01:30pm 19.6 WSW 13 14 - - - - - - - - - -
26/01:00pm 19.6 WSW 12 14 - - - - - - - - - -
26/12:30pm 19.3 WSW 12 15 - - - - - - - - - -
26/12:00pm 19.2 WSW 9 11 - - - - - - - - - -
26/11:30am 18.9 WSW 9 11 - - - - - - - - - -
26/11:00am 19.0 WSW 9 11 - - - - - - - - - -
26/10:30am 19.0 WSW 8 9 - - - - - - - - - -
26/10:00am 19.1 WSW 10 11 - - - - - - - - - -
26/09:30am 18.8 WSW 10 12 - - - - - - - - - -
26/09:00am 18.5 WSW 10 12 - - - - - - - - - -
26/08:30am 18.4 W 12 16 - - - - - - - - - -
26/08:00am 18.9 W 7 9 - - - - - - - - - -
26/07:30am 18.9 WSW 4 8 - - - - - - - - - -
26/07:00am 17.1 E 1 2 - - - - - - - - - -
26/06:30am 16.5 SSE 1 2 - - - - - - - - - -
26/06:00am 16.2 ESE 3 4 - - - - - - - - - -
26/05:30am 16.3 E 2 3 - - - - - - - - - -
26/05:00am 16.6 E 2 3 - - - - - - - - - -
26/04:30am 17.9 SW 2 2 - - - - - - - - - -
26/04:00am 18.2 SW 1 3 - - - - - - - - - -
26/03:30am 18.1 SSW 1 3 - - - - - - - - - -
26/03:00am 18.6 W 3 5 - - - - - - - - - -
26/02:30am 17.6 CALM 0 0 - - - - - - - - - -
26/02:00am 17.2 SE 3 5 - - - - - - - - - -
26/01:30am 17.6 SE 4 7 - - - - - - - - - -
26/01:00am 17.8 ESE 5 8 - - - - - - - - - -
26/12:30am 18.3 ESE 5 10 - - - - - - - - - -
26/12:00am 18.6 SE 6 9 - - - - - - - - - -
 
Date/Time
EDT
Temp

°C
Wind Pressure Rain
since 9am
mm
Weather Cloud Vis
km
Sea
Height
m
Swell
Dir
 
Speed
knots
Gust
knots
hPa Trend Height
m
Period
s
Dir
25/11:30pm 19.1 ESE 6 10 - - - - - - - - - -
25/11:00pm 19.4 ESE 6 10 - - - - - - - - - -
25/10:30pm 19.7 ESE 6 11 - - - - - - - - - -
25/10:00pm 20.0 ESE 7 11 - - - - - - - - - -
25/09:30pm 20.4 ESE 7 13 - - - - - - - - - -
25/09:00pm 21.0 ESE 7 13 - - - - - - - - - -
25/08:30pm 21.6 ESE 8 18 - - - - - - - - - -
25/08:00pm 22.3 ESE 8 16 - - - - - - - - - -
25/07:30pm 23.1 ESE 7 13 - - - - - - - - - -
25/07:00pm 23.9 ESE 9 15 - - - - - - - - - -
25/06:30pm 24.4 ESE 9 14 - - - - - - - - - -
25/06:00pm 25.6 ESE 7 13 - - - - - - - - - -
25/05:30pm 25.4 E 8 16 - - - - - - - - - -
25/05:00pm 26.1 ESE 8 14 - - - - - - - - - -
25/04:30pm 25.6 ESE 7 13 - - - - - - - - - -
25/04:00pm 25.8 ESE 7 12 - - - - - - - - - -
25/03:30pm 25.8 ESE 7 13 - - - - - - - - - -
25/03:00pm 25.1 ESE 7 12 - - - - - - - - - -
25/02:30pm 25.3 ESE 6 11 - - - - - - - - - -
25/02:00pm 24.5 ESE 6 11 - - - - - - - - - -
25/01:30pm 24.5 ESE 6 10 - - - - - - - - - -
25/01:00pm 24.3 ESE 5 10 - - - - - - - - - -
25/12:30pm 23.3 E 8 12 - - - - - - - - - -
25/12:00pm 23.4 E 9 13 - - - - - - - - - -
25/11:30am 22.3 ESE 9 16 - - - - - - - - - -
25/11:00am 21.1 ESE 9 14 - - - - - - - - - -
25/10:30am 20.1 E 9 15 - - - - - - - - - -
25/10:00am 19.3 E 9 16 - - - - - - - - - -
25/09:30am 18.6 E 9 16 - - - - - - - - - -
25/09:00am 18.5 ESE 9 18 - - - - - - - - - -
25/08:30am 17.7 E 10 17 - - - - - - - - - -
25/08:00am 17.2 ESE 8 17 - - - - - - - - - -
25/07:30am 16.8 ESE 7 15 - - - - - - - - - -
25/07:00am 16.6 ESE 8 15 - - - - - - - - - -
25/06:30am 16.4 ESE 8 17 - - - - - - - - - -
25/06:00am 16.4 ESE 8 17 - - - - - - - - - -
25/05:30am 16.4 ESE 9 17 - - - - - - - - - -
25/05:00am 16.4 ESE 10 18 - - - - - - - - - -
25/04:30am 16.4 ESE 9 18 - - - - - - - - - -
25/04:00am 16.5 ESE 9 22 - - - - - - - - - -
25/03:30am 16.7 ESE 11 20 - - - - - - - - - -
25/03:00am 17.2 ESE 10 21 - - - - - - - - - -
25/02:30am 17.3 ESE 8 15 - - - - - - - - - -
25/02:00am 17.1 SE 7 14 - - - - - - - - - -
25/01:30am 17.3 ESE 10 17 - - - - - - - - - -
25/01:00am 16.8 SE 6 13 - - - - - - - - - -
25/12:30am 17.0 SE 5 9 - - - - - - - - - -

Other Formats:

Comma delimited format used in spreadsheet applications
http://www.bom.gov.au/fwo/IDV60701/IDV60701.94871.axf

JavaScript Object Notation format (JSON) in row-major order
http://www.bom.gov.au/fwo/IDV60701/IDV60701.94871.json